sim
Sign-in with your pilot id or email,
or register
Callsign
Passwort

Schedule Details

Flight Number: EWG1974 (1)
Departure: Munich Airport (EDDM) at 09:45
Arrival: Hamburg Airport (EDDH) at 11:10
Route: Eurowings Passenger Schedule. Enter filed route here before submitting Pirep.

Weather Information
Getting current METAR information for EDDM 211050Z 04005KT 330V100 CAVOK 21/13 Q1017 NOSIG
Getting current METAR information for EDDH 211050Z 14005KT 090V170 CAVOK 22/09 Q1018 NOSIG

Schedule Frequency

Route Map